Time,TemperatureF,DewpointF,PressureIn,WindDirection,WindDirectionDegrees,WindSpeedMPH,WindSpeedGustMPH,Humidity,HourlyPrecipIn,Conditions,Clouds,dailyrainin,SoftwareType,DateUTC
2013-03-27 21:09:00,37.2,24.6,30.14,WSW,254,0.0,0.0,60,0.00,,---,0.00,VWS V14.01,2013-03-28 01:09:00,
2013-03-27 21:10:00,37.2,25.0,30.14,WSW,254,0.0,0.0,61,0.00,,---,0.00,VWS V14.01,2013-03-28 01:10:00,
2013-03-27 21:11:00,37.2,24.6,30.14,WSW,254,0.0,0.0,60,0.00,,---,0.00,VWS V14.01,2013-03-28 01:11:00,
2013-03-27 21:12:00,37.2,24.6,30.14,WSW,254,0.0,0.0,60,0.00,,---,0.00,VWS V14.01,2013-03-28 01:12:00,
2013-03-27 21:13:00,37.2,24.6,30.14,WSW,254,0.0,0.0,60,0.00,,---,0.00,VWS V14.01,2013-03-28 01:13:00,
2013-03-27 21:14:00,37.2,25.0,30.14,WSW,254,0.0,0.0,61,0.00,,---,0.00,VWS V14.01,2013-03-28 01:14:00,
2013-03-27 21:15:00,37.0,24.8,30.14,WSW,254,0.0,1.0,61,0.00,,---,0.00,VWS V14.01,2013-03-28 01:15:00,
2013-03-27 21:16:00,37.0,24.8,30.14,WSW,254,0.0,0.0,61,0.00,,---,0.00,VWS V14.01,2013-03-28 01:16:00,
2013-03-27 21:17:00,37.0,24.8,30.14,WSW,254,0.0,0.0,61,0.00,,---,0.00,VWS V14.01,2013-03-28 01:17:00,
2013-03-27 21:18:00,37.0,24.8,30.14,WSW,254,0.0,0.0,61,0.00,,---,0.00,VWS V14.01,2013-03-28 01:18:00,
2013-03-27 21:19:00,37.0,25.2,30.14,WSW,254,0.0,0.0,62,0.00,,---,0.00,VWS V14.01,2013-03-28 01:19:00,
2013-03-27 22:18:00,37.0,24.8,30.14,WSW,254,0.0,0.0,61,0.00,,---,0.00,VWS V14.01,2013-03-28 02:18:00,
2013-03-27 22:23:00,36.9,25.1,30.14,WSW,254,0.0,0.0,62,0.00,,---,0.00,VWS V14.01,2013-03-28 02:23:00,
2013-03-27 22:28:00,36.8,24.6,30.14,WSW,254,0.0,0.0,61,0.00,,---,0.00,VWS V14.01,2013-03-28 02:28:00,
2013-03-27 22:33:00,36.6,24.4,30.14,WSW,254,0.0,0.0,61,0.00,,---,0.00,VWS V14.01,2013-03-28 02:33:00,
2013-03-27 22:38:00,36.5,24.3,30.14,WSW,254,0.0,0.0,61,0.00,,---,0.00,VWS V14.01,2013-03-28 02:38:00,
2013-03-27 22:43:00,36.5,24.3,30.14,WSW,254,2.0,2.0,61,0.00,,---,0.00,VWS V14.01,2013-03-28 02:43:00,
2013-03-27 22:48:00,36.6,24.0,30.14,WSW,253,0.0,2.0,60,0.00,,---,0.00,VWS V14.01,2013-03-28 02:48:00,
2013-03-27 22:53:00,36.8,24.2,30.14,WSW,249,1.0,1.0,60,0.00,,---,0.00,VWS V14.01,2013-03-28 02:53:00,
2013-03-27 22:58:00,36.8,24.2,30.14,WSW,249,0.0,0.0,60,0.00,,---,0.00,VWS V14.01,2013-03-28 02:58:00,
2013-03-27 22:59:00,36.9,22.7,30.13,SSW,197,0.0,0.0,56,0.00,,---,0.00,VWS V14.01,2013-03-28 02:59:00,
2013-03-27 23:00:00,36.9,22.7,30.13,SSW,198,0.0,1.0,56,0.00,,---,0.00,VWS V14.01,2013-03-28 03:00:00,
2013-03-27 23:01:00,36.9,22.7,30.13,SSW,197,0.0,1.0,56,0.00,,---,0.00,VWS V14.01,2013-03-28 03:01:00,
2013-03-27 23:02:00,36.9,23.1,30.13,SSW,197,4.0,5.0,57,0.00,,---,0.00,VWS V14.01,2013-03-28 03:02:00,
2013-03-27 23:03:00,36.6,24.4,30.14,WSW,249,0.0,0.0,61,0.00,,---,0.00,VWS V14.01,2013-03-28 03:03:00,
2013-03-27 23:08:00,36.3,24.5,30.14,WSW,249,0.0,2.0,62,0.00,,---,0.00,VWS V14.01,2013-03-28 03:08:00,
2013-03-27 23:13:00,36.2,24.8,30.14,WSW,249,0.0,1.0,63,0.00,,---,0.00,VWS V14.01,2013-03-28 03:13:00,
2013-03-27 23:18:00,35.9,24.9,30.14,SSW,208,2.0,2.0,64,0.00,,---,0.00,VWS V14.01,2013-03-28 03:18:00,
2013-03-27 23:23:00,35.9,24.9,30.14,SSW,208,0.0,1.0,64,0.00,,---,0.00,VWS V14.01,2013-03-28 03:23:00,
2013-03-27 23:28:00,36.0,23.5,30.14,SSW,208,0.0,3.0,60,0.00,,---,0.00,VWS V14.01,2013-03-28 03:28:00,
2013-03-27 23:33:00,36.3,23.4,30.14,SSW,209,0.0,2.0,59,0.00,,---,0.00,VWS V14.01,2013-03-28 03:33:00,
2013-03-27 23:38:00,36.6,23.2,30.14,SSW,211,1.0,1.0,58,0.00,,---,0.00,VWS V14.01,2013-03-28 03:38:00,
2013-03-27 23:43:00,36.8,23.4,30.14,SSW,210,0.0,1.0,58,0.00,,---,0.00,VWS V14.01,2013-03-28 03:43:00,
2013-03-27 23:48:00,36.9,23.1,30.13,SSW,210,0.0,2.0,57,0.00,,---,0.00,VWS V14.01,2013-03-28 03:48:00,
2013-03-27 23:53:00,36.9,22.7,30.13,SSW,196,0.0,3.0,56,0.00,,---,0.00,VWS V14.01,2013-03-28 03:53:00,
2013-03-27 23:58:00,37.0,22.8,30.13,SSW,198,1.0,5.0,56,0.00,,---,0.00,VWS V14.01,2013-03-28 03:58:00,